Time,TemperatureF,DewpointF,PressureIn,WindDirection,WindDirectionDegrees,WindSpeedMPH,WindSpeedGustMPH,Humidity,HourlyPrecipIn,Conditions,Clouds,dailyrainin,SolarRadiationWatts/m^2,SoftwareType,DateUTC
2013-09-20 00:01:00,68.5,67.3,30.03,East,92,0.0,0.0,96,0.00,,,0.00,0.0,meteohub,2013-09-20 04:01:00,
2013-09-20 00:06:00,68.5,67.3,30.03,East,92,0.0,0.0,96,0.00,,,0.00,0.0,meteohub,2013-09-20 04:06:00,
2013-09-20 00:12:00,68.5,67.3,30.03,East,92,0.0,0.0,96,0.00,,,0.00,0.0,meteohub,2013-09-20 04:12:00,
2013-09-20 00:17:00,68.5,67.3,30.03,East,92,0.0,0.0,96,0.00,,,0.00,0.0,meteohub,2013-09-20 04:17:00,
2013-09-20 00:22:00,68.4,67.1,30.03,East,92,0.0,0.0,96,0.00,,,0.00,0.0,meteohub,2013-09-20 04:22:00,
2013-09-20 00:27:00,68.4,67.1,30.03,East,92,0.0,0.0,96,0.00,,,0.00,0.0,meteohub,2013-09-20 04:27:00,
2013-09-20 00:32:00,68.2,66.9,30.02,East,92,0.0,0.0,96,0.00,,,0.00,0.0,meteohub,2013-09-20 04:32:00,
2013-09-20 00:37:00,68.2,66.9,30.02,East,92,0.0,0.0,96,0.00,,,0.00,0.0,meteohub,2013-09-20 04:37:00,
2013-09-20 00:42:00,68.2,66.9,30.03,East,92,0.0,0.0,96,0.00,,,0.00,0.0,meteohub,2013-09-20 04:42:00,
2013-09-20 00:47:00,68.2,66.9,30.03,East,92,0.0,0.0,96,0.00,,,0.00,0.0,meteohub,2013-09-20 04:47:00,
2013-09-20 00:52:00,68.0,66.7,30.03,East,92,0.0,0.0,96,0.00,,,0.00,0.0,meteohub,2013-09-20 04:52:00,
2013-09-20 00:57:00,68.0,67.1,30.02,East,92,0.0,0.0,97,0.00,,,0.00,0.0,meteohub,2013-09-20 04:57:00,
2013-09-20 01:02:00,68.2,67.3,30.03,East,92,0.0,0.0,97,0.00,,,0.00,0.0,meteohub,2013-09-20 05:02:00,
2013-09-20 01:07:00,68.0,67.1,30.03,East,92,0.0,0.0,97,0.00,,,0.00,0.0,meteohub,2013-09-20 05:07:00,
2013-09-20 01:12:00,67.8,66.9,30.03,East,92,0.0,0.0,97,0.00,,,0.00,0.0,meteohub,2013-09-20 05:12:00,
2013-09-20 01:17:00,67.8,66.9,30.03,East,92,0.0,0.0,97,0.00,,,0.00,0.0,meteohub,2013-09-20 05:17:00,
2013-09-20 01:22:00,67.6,66.7,30.02,East,92,0.0,0.0,97,0.00,,,0.00,0.0,meteohub,2013-09-20 05:22:00,
2013-09-20 01:27:00,67.6,66.7,30.02,East,92,0.0,0.0,97,0.00,,,0.00,0.0,meteohub,2013-09-20 05:27:00,
2013-09-20 01:32:00,67.5,66.6,30.02,East,92,0.0,0.0,97,0.00,,,0.00,0.0,meteohub,2013-09-20 05:32:00,
2013-09-20 01:37:00,67.6,66.7,30.02,East,92,0.0,0.0,97,0.00,,,0.00,0.0,meteohub,2013-09-20 05:37:00,
2013-09-20 01:42:00,67.6,66.7,30.02,East,92,0.0,0.0,97,0.00,,,0.00,0.0,meteohub,2013-09-20 05:42:00,
2013-09-20 01:47:00,67.5,66.6,30.02,East,92,0.0,0.0,97,0.00,,,0.00,0.0,meteohub,2013-09-20 05:47:00,
2013-09-20 01:52:00,67.5,66.6,30.02,East,92,0.0,0.0,97,0.00,,,0.00,0.0,meteohub,2013-09-20 05:52:00,
2013-09-20 01:57:00,67.5,66.6,30.02,East,92,0.0,0.0,97,0.00,,,0.00,0.0,meteohub,2013-09-20 05:57:00,
2013-09-20 02:02:00,67.5,66.6,30.02,East,92,0.0,0.0,97,0.00,,,0.00,0.0,meteohub,2013-09-20 06:02:00,
2013-09-20 02:07:00,67.3,66.4,30.02,East,92,0.0,0.0,97,0.00,,,0.00,0.0,meteohub,2013-09-20 06:07:00,
2013-09-20 02:12:00,67.3,66.4,30.02,East,92,0.0,0.0,97,0.00,,,0.00,0.0,meteohub,2013-09-20 06:12:00,
2013-09-20 02:17:00,67.3,66.4,30.02,East,92,0.0,0.0,97,0.00,,,0.00,0.0,meteohub,2013-09-20 06:17:00,
2013-09-20 02:22:00,67.3,66.4,30.02,East,92,0.0,0.0,97,0.00,,,0.00,0.0,meteohub,2013-09-20 06:22:00,
2013-09-20 02:27:00,67.3,66.4,30.02,East,92,0.0,0.0,97,0.00,,,0.00,0.0,meteohub,2013-09-20 06:27:00,
2013-09-20 02:32:00,67.3,66.4,30.02,East,92,0.0,0.0,97,0.00,,,0.00,0.0,meteohub,2013-09-20 06:32:00,
2013-09-20 02:37:00,67.3,66.4,30.02,East,92,0.0,0.0,97,0.00,,,0.00,0.0,meteohub,2013-09-20 06:37:00,
2013-09-20 02:42:00,67.3,66.4,30.02,East,92,0.0,0.0,97,0.00,,,0.00,0.0,meteohub,2013-09-20 06:42:00,
2013-09-20 02:47:00,67.1,66.2,30.02,East,92,0.0,0.0,97,0.00,,,0.00,0.0,meteohub,2013-09-20 06:47:00,
2013-09-20 02:52:00,66.9,66.0,30.02,East,92,0.0,0.0,97,0.00,,,0.00,0.0,meteohub,2013-09-20 06:52:00,
2013-09-20 02:57:00,66.7,65.8,30.02,East,92,0.0,0.0,97,0.00,,,0.00,0.0,meteohub,2013-09-20 06:57:00,
2013-09-20 03:02:00,66.7,65.8,30.02,East,92,0.0,0.0,97,0.00,,,0.00,0.0,meteohub,2013-09-20 07:02:00,
2013-09-20 03:07:00,66.7,65.8,30.02,East,92,0.0,0.0,97,0.00,,,0.00,0.0,meteohub,2013-09-20 07:07:00,
2013-09-20 03:12:00,66.7,65.8,30.02,East,92,0.0,0.0,97,0.00,,,0.00,0.0,meteohub,2013-09-20 07:12:00,
2013-09-20 03:17:00,66.7,65.8,30.02,East,92,0.0,0.0,97,0.00,,,0.00,0.0,meteohub,2013-09-20 07:17:00,
2013-09-20 03:22:00,66.7,65.8,30.01,East,92,0.0,0.0,97,0.00,,,0.00,0.0,meteohub,2013-09-20 07:22:00,
2013-09-20 03:27:00,66.7,65.8,30.01,East,92,0.0,0.0,97,0.00,,,0.00,0.0,meteohub,2013-09-20 07:27:00,
2013-09-20 03:32:00,66.6,65.7,30.01,East,92,0.0,0.0,97,0.00,,,0.00,0.0,meteohub,2013-09-20 07:32:00,
2013-09-20 03:37:00,66.6,65.7,30.01,East,92,0.0,0.0,97,0.00,,,0.00,0.0,meteohub,2013-09-20 07:37:00,
2013-09-20 03:42:00,66.7,65.8,30.01,East,92,0.0,0.0,97,0.00,,,0.00,0.0,meteohub,2013-09-20 07:42:00,
2013-09-20 03:47:00,66.6,65.7,30.02,East,92,0.0,0.0,97,0.00,,,0.00,0.0,meteohub,2013-09-20 07:47:00,
2013-09-20 03:52:00,66.6,65.7,30.02,East,92,0.0,0.0,97,0.00,,,0.00,0.0,meteohub,2013-09-20 07:52:00,
2013-09-20 03:57:00,66.6,65.7,30.02,East,92,0.0,0.0,97,0.00,,,0.00,0.0,meteohub,2013-09-20 07:57:00,
2013-09-20 04:02:00,66.4,65.5,30.01,East,92,0.0,0.0,97,0.00,,,0.00,0.0,meteohub,2013-09-20 08:02:00,
2013-09-20 04:07:00,66.2,65.3,30.02,East,92,0.0,0.0,97,0.00,,,0.00,0.0,meteohub,2013-09-20 08:07:00,
2013-09-20 04:12:00,66.2,65.3,30.01,East,92,0.0,0.0,97,0.00,,,0.00,0.0,meteohub,2013-09-20 08:12:00,
2013-09-20 04:17:00,66.2,65.3,30.01,East,92,0.0,0.0,97,0.00,,,0.00,0.0,meteohub,2013-09-20 08:17:00,
2013-09-20 04:22:00,66.4,65.5,30.01,East,92,0.0,0.0,97,0.00,,,0.00,0.0,meteohub,2013-09-20 08:22:00,
2013-09-20 04:27:00,66.4,65.5,30.01,East,92,0.0,0.0,97,0.00,,,0.00,0.0,meteohub,2013-09-20 08:27:00,
2013-09-20 04:32:00,66.4,65.5,30.01,East,92,0.0,0.0,97,0.00,,,0.00,0.0,meteohub,2013-09-20 08:32:00,
2013-09-20 04:37:00,66.2,65.3,30.01,East,92,0.0,0.0,97,0.00,,,0.00,0.0,meteohub,2013-09-20 08:37:00,
2013-09-20 04:42:00,66.0,65.5,30.01,East,92,0.0,0.0,98,0.00,,,0.00,0.0,meteohub,2013-09-20 08:42:00,
2013-09-20 04:47:00,66.0,65.5,30.01,East,92,0.0,0.0,98,0.00,,,0.00,0.0,meteohub,2013-09-20 08:47:00,
2013-09-20 04:52:00,66.2,65.7,30.01,East,92,0.0,0.0,98,0.00,,,0.00,0.0,meteohub,2013-09-20 08:52:00,
2013-09-20 04:57:00,66.0,65.5,30.01,East,92,0.0,0.0,98,0.00,,,0.00,0.0,meteohub,2013-09-20 08:57:00,
2013-09-20 05:02:00,66.0,65.5,30.01,East,92,0.0,0.0,98,0.00,,,0.00,0.0,meteohub,2013-09-20 09:02:00,
2013-09-20 05:07:00,66.0,65.5,30.01,East,92,0.0,0.0,98,0.00,,,0.00,0.0,meteohub,2013-09-20 09:07:00,
2013-09-20 05:12:00,65.8,65.3,30.01,East,92,0.0,0.0,98,0.00,,,0.00,0.0,meteohub,2013-09-20 09:12:00,
2013-09-20 05:17:00,65.8,65.3,30.01,East,92,0.0,0.0,98,0.00,,,0.00,0.0,meteohub,2013-09-20 09:17:00,
2013-09-20 05:22:00,65.8,65.3,30.01,East,92,0.0,0.0,98,0.00,,,0.00,0.0,meteohub,2013-09-20 09:22:00,
2013-09-20 05:27:00,65.8,65.3,30.02,East,92,0.0,0.0,98,0.00,,,0.00,0.0,meteohub,2013-09-20 09:27:00,
2013-09-20 05:32:00,65.8,65.3,30.02,East,92,0.0,0.0,98,0.00,,,0.00,0.0,meteohub,2013-09-20 09:32:00,
2013-09-20 05:37:00,66.0,65.5,30.02,East,92,0.0,0.0,98,0.00,,,0.00,0.0,meteohub,2013-09-20 09:37:00,
2013-09-20 05:42:00,66.0,65.5,30.01,East,92,0.0,0.0,98,0.00,,,0.00,0.0,meteohub,2013-09-20 09:42:00,
2013-09-20 05:47:00,66.0,65.5,30.01,East,92,0.0,0.0,98,0.00,,,0.00,0.0,meteohub,2013-09-20 09:47:00,
2013-09-20 05:52:00,66.0,65.5,30.01,East,92,0.0,0.0,98,0.00,,,0.00,0.0,meteohub,2013-09-20 09:52:00,
2013-09-20 05:57:00,66.0,65.5,30.01,East,92,0.0,0.0,98,0.00,,,0.00,0.0,meteohub,2013-09-20 09:57:00,
2013-09-20 06:02:00,66.0,65.5,30.01,East,92,0.0,0.0,98,0.00,,,0.00,0.0,meteohub,2013-09-20 10:02:00,
2013-09-20 06:07:00,66.0,65.5,30.02,East,92,0.0,0.0,98,0.00,,,0.00,0.0,meteohub,2013-09-20 10:07:00,
2013-09-20 06:12:00,66.2,65.7,30.02,East,92,0.0,0.0,98,0.00,,,0.00,0.0,meteohub,2013-09-20 10:12:00,
2013-09-20 06:17:00,66.4,65.8,30.02,East,92,0.0,0.0,98,0.00,,,0.00,0.0,meteohub,2013-09-20 10:17:00,
2013-09-20 06:22:00,66.4,65.8,30.02,East,92,0.0,0.0,98,0.00,,,0.00,0.0,meteohub,2013-09-20 10:22:00,
2013-09-20 06:27:00,66.4,65.8,30.02,East,92,0.0,0.0,98,0.00,,,0.00,0.0,meteohub,2013-09-20 10:27:00,
2013-09-20 06:32:00,66.4,65.8,30.02,East,92,0.0,0.0,98,0.00,,,0.00,0.0,meteohub,2013-09-20 10:32:00,
2013-09-20 06:37:00,66.4,65.8,30.02,East,92,0.0,0.0,98,0.00,,,0.00,0.0,meteohub,2013-09-20 10:37:00,
2013-09-20 06:42:00,66.2,65.7,30.02,East,92,0.0,0.0,98,0.00,,,0.00,0.0,meteohub,2013-09-20 10:42:00,
2013-09-20 06:47:00,66.0,65.5,30.02,East,92,0.0,0.0,98,0.00,,,0.00,0.0,meteohub,2013-09-20 10:47:00,
2013-09-20 06:52:00,66.0,65.5,30.02,East,92,0.0,0.0,98,0.00,,,0.00,0.0,meteohub,2013-09-20 10:52:00,
2013-09-20 06:57:00,65.8,65.3,30.02,East,92,0.0,0.0,98,0.00,,,0.00,0.0,meteohub,2013-09-20 10:57:00,
2013-09-20 07:02:00,65.8,65.3,30.02,East,92,0.0,0.0,98,0.00,,,0.00,0.0,meteohub,2013-09-20 11:02:00,
2013-09-20 07:07:00,65.8,65.3,30.02,East,92,0.0,0.0,98,0.00,,,0.00,0.0,meteohub,2013-09-20 11:07:00,
2013-09-20 07:12:00,65.8,65.3,30.02,East,92,0.0,0.0,98,0.00,,,0.00,0.0,meteohub,2013-09-20 11:12:00,
2013-09-20 07:18:00,66.0,65.5,30.02,East,92,0.0,0.0,98,0.00,,,0.00,5.0,meteohub,2013-09-20 11:18:00,
2013-09-20 07:23:00,65.8,65.3,30.02,East,92,0.0,0.0,98,0.00,,,0.00,7.0,meteohub,2013-09-20 11:23:00,
2013-09-20 07:28:00,65.8,65.3,30.02,East,92,0.0,0.0,98,0.00,,,0.00,11.0,meteohub,2013-09-20 11:28:00,
2013-09-20 07:33:00,65.8,65.3,30.03,East,92,0.0,0.0,98,0.00,,,0.00,14.0,meteohub,2013-09-20 11:33:00,
2013-09-20 07:38:00,66.0,65.5,30.03,East,92,0.0,0.0,98,0.00,,,0.00,19.0,meteohub,2013-09-20 11:38:00,
2013-09-20 07:43:00,66.0,65.5,30.03,East,92,0.0,0.0,98,0.00,,,0.00,23.0,meteohub,2013-09-20 11:43:00,
2013-09-20 07:48:00,66.2,65.7,30.03,East,92,0.0,0.0,98,0.00,,,0.00,26.0,meteohub,2013-09-20 11:48:00,
2013-09-20 07:53:00,66.4,65.8,30.03,East,92,0.0,0.0,98,0.00,,,0.00,28.0,meteohub,2013-09-20 11:53:00,
2013-09-20 07:58:00,66.6,66.0,30.03,East,92,0.0,0.0,98,0.00,,,0.00,33.0,meteohub,2013-09-20 11:58:00,
2013-09-20 08:03:00,66.9,66.4,30.03,East,92,0.0,0.0,98,0.00,,,0.00,70.0,meteohub,2013-09-20 12:03:00,
2013-09-20 08:08:00,67.5,66.9,30.04,East,92,0.0,0.0,98,0.00,,,0.00,54.0,meteohub,2013-09-20 12:08:00,
2013-09-20 08:13:00,67.8,67.3,30.04,East,92,0.0,0.0,98,0.00,,,0.00,44.0,meteohub,2013-09-20 12:13:00,
2013-09-20 08:18:00,68.2,67.6,30.04,East,92,0.0,0.0,98,0.00,,,0.00,160.0,meteohub,2013-09-20 12:18:00,
2013-09-20 08:23:00,68.5,68.0,30.04,East,92,0.0,1.0,98,0.00,,,0.00,181.0,meteohub,2013-09-20 12:23:00,
2013-09-20 08:28:00,69.3,68.7,30.04,South,169,0.0,1.0,98,0.00,,,0.00,197.0,meteohub,2013-09-20 12:28:00,
2013-09-20 08:33:00,69.6,69.1,30.04,South,170,0.0,1.0,98,0.00,,,0.00,209.0,meteohub,2013-09-20 12:33:00,
2013-09-20 08:38:00,70.0,69.4,30.04,South,170,0.0,0.0,98,0.00,,,0.00,225.0,meteohub,2013-09-20 12:38:00,
2013-09-20 08:43:00,70.3,69.8,30.04,ENE,64,0.0,0.0,98,0.00,,,0.00,241.0,meteohub,2013-09-20 12:43:00,
2013-09-20 08:48:00,70.7,70.2,30.04,ENE,64,0.0,1.0,98,0.00,,,0.00,258.0,meteohub,2013-09-20 12:48:00,
2013-09-20 08:53:00,71.4,70.9,30.04,ENE,64,0.0,1.0,98,0.00,,,0.00,274.0,meteohub,2013-09-20 12:53:00,
2013-09-20 08:58:00,71.8,71.2,30.04,ENE,64,0.0,1.0,98,0.00,,,0.00,290.0,meteohub,2013-09-20 12:58:00,
2013-09-20 09:03:00,72.3,71.8,30.03,ENE,64,0.0,0.0,98,0.00,,,0.00,309.0,meteohub,2013-09-20 13:03:00,
2013-09-20 09:08:00,73.0,72.5,30.03,ENE,64,0.0,0.0,98,0.00,,,0.00,334.0,meteohub,2013-09-20 13:08:00,
2013-09-20 09:13:00,73.8,72.9,30.04,ENE,64,0.0,1.0,97,0.00,,,0.00,355.0,meteohub,2013-09-20 13:13:00,
2013-09-20 09:18:00,74.5,73.0,30.04,ENE,64,1.0,1.0,95,0.00,,,0.00,385.0,meteohub,2013-09-20 13:18:00,
2013-09-20 09:23:00,74.7,72.1,30.04,ENE,57,0.0,2.0,92,0.00,,,0.00,403.0,meteohub,2013-09-20 13:23:00,
2013-09-20 09:28:00,75.0,72.0,30.04,NE,55,3.0,6.0,90,0.00,,,0.00,420.0,meteohub,2013-09-20 13:28:00,
2013-09-20 09:33:00,75.6,72.1,30.04,NE,34,0.0,6.0,89,0.00,,,0.00,434.0,meteohub,2013-09-20 13:33:00,
2013-09-20 09:38:00,76.1,72.0,30.04,NW,317,0.0,6.0,87,0.00,,,0.00,448.0,meteohub,2013-09-20 13:38:00,
2013-09-20 09:43:00,76.6,71.8,30.04,NE,45,0.0,5.0,85,0.00,,,0.00,464.0,meteohub,2013-09-20 13:43:00,
2013-09-20 09:48:00,76.8,71.6,30.04,NNE,33,0.0,4.0,84,0.00,,,0.00,482.0,meteohub,2013-09-20 13:48:00,
2013-09-20 09:53:00,77.0,71.4,30.04,NE,56,1.0,5.0,83,0.00,,,0.00,499.0,meteohub,2013-09-20 13:53:00,
2013-09-20 09:58:00,77.4,71.8,30.04,NW,307,0.0,5.0,83,0.00,,,0.00,517.0,meteohub,2013-09-20 13:58:00,
2013-09-20 10:03:00,77.7,71.8,30.04,WNW,301,7.0,7.0,82,0.00,,,0.00,534.0,meteohub,2013-09-20 14:03:00,
2013-09-20 10:08:00,78.1,71.8,30.04,NE,44,1.0,7.0,81,0.00,,,0.00,548.0,meteohub,2013-09-20 14:08:00,
2013-09-20 10:13:00,78.3,72.0,30.04,NNE,20,2.0,7.0,81,0.00,,,0.00,564.0,meteohub,2013-09-20 14:13:00,
2013-09-20 10:18:00,78.6,72.0,30.04,NNE,16,0.0,7.0,80,0.00,,,0.00,592.0,meteohub,2013-09-20 14:18:00,
2013-09-20 10:23:00,78.6,72.0,30.04,ENE,58,1.0,5.0,80,0.00,,,0.00,612.0,meteohub,2013-09-20 14:23:00,
2013-09-20 10:28:00,78.6,72.0,30.04,NE,46,0.0,8.0,80,0.00,,,0.00,619.0,meteohub,2013-09-20 14:28:00,
2013-09-20 10:33:00,78.6,71.6,30.03,NE,53,0.0,8.0,79,0.00,,,0.00,640.0,meteohub,2013-09-20 14:33:00,
2013-09-20 10:38:00,79.0,72.3,30.03,ESE,118,0.0,8.0,80,0.00,,,0.00,675.0,meteohub,2013-09-20 14:38:00,
2013-09-20 10:43:00,79.0,71.6,30.03,ENE,64,5.0,9.0,78,0.00,,,0.00,728.0,meteohub,2013-09-20 14:43:00,
2013-09-20 10:48:00,79.2,71.8,30.03,NNE,28,3.0,9.0,78,0.00,,,0.00,775.0,meteohub,2013-09-20 14:48:00,
2013-09-20 10:53:00,79.3,72.0,30.03,NE,53,1.0,8.0,78,0.00,,,0.00,861.0,meteohub,2013-09-20 14:53:00,
2013-09-20 10:58:00,79.7,71.8,30.03,ENE,74,3.0,8.0,77,0.00,,,0.00,867.0,meteohub,2013-09-20 14:58:00,
2013-09-20 11:03:00,80.1,72.1,30.03,NNE,29,0.0,8.0,77,0.00,,,0.00,810.0,meteohub,2013-09-20 15:03:00,
2013-09-20 11:08:00,79.9,71.6,30.03,NNW,337,0.0,8.0,76,0.00,,,0.00,192.0,meteohub,2013-09-20 15:08:00,
2013-09-20 11:13:00,79.3,71.1,30.03,ENE,69,0.0,9.0,76,0.00,,,0.00,262.0,meteohub,2013-09-20 15:13:00,
2013-09-20 11:19:00,79.2,71.2,30.03,NE,55,0.0,9.0,77,0.00,,,0.00,262.0,meteohub,2013-09-20 15:19:00,
2013-09-20 11:24:00,79.2,71.8,30.03,NE,43,0.0,8.0,78,0.00,,,0.00,258.0,meteohub,2013-09-20 15:24:00,
2013-09-20 11:29:00,79.2,71.8,30.03,NE,35,2.0,7.0,78,0.00,,,0.00,218.0,meteohub,2013-09-20 15:29:00,
2013-09-20 11:34:00,79.2,71.8,30.02,ENE,59,0.0,5.0,78,0.00,,,0.00,988.0,meteohub,2013-09-20 15:34:00,
2013-09-20 11:39:00,79.5,71.6,30.02,ENE,59,0.0,8.0,77,0.00,,,0.00,236.0,meteohub,2013-09-20 15:39:00,
2013-09-20 11:44:00,79.5,71.6,30.02,NE,34,2.0,8.0,77,0.00,,,0.00,199.0,meteohub,2013-09-20 15:44:00,
2013-09-20 11:49:00,79.3,72.0,30.02,ENE,65,0.0,6.0,78,0.00,,,0.00,297.0,meteohub,2013-09-20 15:49:00,
2013-09-20 11:54:00,79.5,71.6,30.02,NE,40,2.0,6.0,77,0.00,,,0.00,341.0,meteohub,2013-09-20 15:54:00,
2013-09-20 11:59:00,79.9,71.6,30.02,NE,34,3.0,5.0,76,0.00,,,0.00,251.0,meteohub,2013-09-20 15:59:00,
2013-09-20 12:04:00,79.7,71.8,30.02,East,85,2.0,10.0,77,0.00,,,0.00,262.0,meteohub,2013-09-20 16:04:00,
2013-09-20 12:09:00,79.9,71.6,30.01,NNE,32,3.0,10.0,76,0.00,,,0.00,357.0,meteohub,2013-09-20 16:09:00,
2013-09-20 12:13:00,79.9,72.0,30.01,NE,41,4.0,10.0,77,0.00,,,0.00,378.0,meteohub,2013-09-20 16:13:00,
2013-09-20 12:18:00,79.7,71.8,30.01,NNE,31,2.0,7.0,77,0.00,,,0.00,394.0,meteohub,2013-09-20 16:18:00,
2013-09-20 12:23:00,79.7,72.1,30.01,NNE,23,0.0,7.0,78,0.00,,,0.00,413.0,meteohub,2013-09-20 16:23:00,
2013-09-20 12:28:00,79.9,72.0,30.01,SE,144,0.0,7.0,77,0.00,,,0.00,490.0,meteohub,2013-09-20 16:28:00,
2013-09-20 12:33:00,80.2,72.3,30.01,ENE,74,1.0,7.0,77,0.00,,,0.00,512.0,meteohub,2013-09-20 16:33:00,
2013-09-20 12:38:00,80.6,72.3,30.01,SE,144,0.0,5.0,76,0.00,,,0.00,719.0,meteohub,2013-09-20 16:38:00,
2013-09-20 12:43:00,81.0,72.7,30.00,NE,44,1.0,5.0,76,0.00,,,0.00,696.0,meteohub,2013-09-20 16:43:00,
2013-09-20 12:48:00,80.8,71.8,30.01,NNE,33,6.0,8.0,74,0.00,,,0.00,485.0,meteohub,2013-09-20 16:48:00,
2013-09-20 12:53:00,80.6,72.0,30.00,NNE,13,8.0,10.0,75,0.00,,,0.00,1067.0,meteohub,2013-09-20 16:53:00,
2013-09-20 12:58:00,81.0,72.0,30.00,ENE,61,2.0,10.0,74,0.00,,,0.00,1007.0,meteohub,2013-09-20 16:58:00,
2013-09-20 13:03:00,81.0,71.4,30.00,NE,42,6.0,11.0,73,0.00,,,0.00,534.0,meteohub,2013-09-20 17:03:00,
2013-09-20 13:08:00,80.4,70.9,30.00,NNE,18,1.0,11.0,73,0.00,,,0.00,202.0,meteohub,2013-09-20 17:08:00,
2013-09-20 13:13:00,80.2,72.0,30.00,ENE,60,1.0,9.0,76,0.00,,,0.00,290.0,meteohub,2013-09-20 17:13:00,
2013-09-20 13:18:00,80.2,71.2,30.00,NE,35,0.0,9.0,74,0.00,,,0.00,366.0,meteohub,2013-09-20 17:18:00,
2013-09-20 13:24:00,80.4,71.4,29.99,ENE,73,0.0,7.0,74,0.00,,,0.00,441.0,meteohub,2013-09-20 17:24:00,
2013-09-20 13:29:00,80.8,71.8,29.99,SE,125,0.0,6.0,74,0.00,,,0.00,552.0,meteohub,2013-09-20 17:29:00,
2013-09-20 13:34:00,81.1,71.6,29.99,NE,42,1.0,6.0,73,0.00,,,0.00,1093.0,meteohub,2013-09-20 17:34:00,
2013-09-20 13:39:00,81.9,72.3,29.99,East,87,1.0,6.0,73,0.00,,,0.00,696.0,meteohub,2013-09-20 17:39:00,
2013-09-20 13:44:00,82.0,71.8,29.99,NNE,30,4.0,6.0,71,0.00,,,0.00,241.0,meteohub,2013-09-20 17:44:00,
2013-09-20 13:48:00,81.1,71.6,29.99,NE,48,2.0,9.0,73,0.00,,,0.00,185.0,meteohub,2013-09-20 17:48:00,
2013-09-20 13:53:00,80.6,72.0,29.99,NE,56,0.0,9.0,75,0.00,,,0.00,146.0,meteohub,2013-09-20 17:53:00,
2013-09-20 13:58:00,80.2,72.0,29.98,NE,56,1.0,9.0,76,0.00,,,0.00,169.0,meteohub,2013-09-20 17:58:00,
2013-09-20 14:03:00,80.2,71.6,29.98,ESE,102,0.0,7.0,75,0.00,,,0.00,223.0,meteohub,2013-09-20 18:03:00,
2013-09-20 14:09:00,80.1,72.1,29.98,NE,54,0.0,4.0,77,0.00,,,0.00,425.0,meteohub,2013-09-20 18:09:00,
2013-09-20 14:14:00,80.4,70.9,29.98,ENE,76,0.0,4.0,73,0.00,,,0.00,185.0,meteohub,2013-09-20 18:14:00,
2013-09-20 14:19:00,80.2,71.2,29.98,SSE,149,0.0,5.0,74,0.00,,,0.00,216.0,meteohub,2013-09-20 18:19:00,
2013-09-20 14:24:00,81.0,71.4,29.97,NE,52,2.0,6.0,73,0.00,,,0.00,902.0,meteohub,2013-09-20 18:24:00,
2013-09-20 14:29:00,82.0,71.8,29.97,ENE,77,0.0,6.0,71,0.00,,,0.00,916.0,meteohub,2013-09-20 18:29:00,
2013-09-20 14:34:00,82.6,71.8,29.97,NNE,33,0.0,6.0,70,0.00,,,0.00,944.0,meteohub,2013-09-20 18:34:00,
2013-09-20 14:39:00,81.9,71.1,29.96,ENE,63,0.0,10.0,70,0.00,,,0.00,149.0,meteohub,2013-09-20 18:39:00,
2013-09-20 14:44:00,81.3,71.1,29.97,NE,49,4.0,10.0,71,0.00,,,0.00,294.0,meteohub,2013-09-20 18:44:00,
2013-09-20 14:49:00,81.3,71.4,29.96,ESE,103,2.0,10.0,72,0.00,,,0.00,870.0,meteohub,2013-09-20 18:49:00,
2013-09-20 14:54:00,81.1,71.2,29.96,NNE,24,0.0,6.0,72,0.00,,,0.00,218.0,meteohub,2013-09-20 18:54:00,
2013-09-20 14:59:00,81.3,71.4,29.96,SE,135,0.0,6.0,72,0.00,,,0.00,918.0,meteohub,2013-09-20 18:59:00,
2013-09-20 15:04:00,82.0,71.8,29.96,NE,36,7.0,7.0,71,0.00,,,0.00,896.0,meteohub,2013-09-20 19:04:00,
2013-09-20 15:09:00,82.0,72.1,29.96,ENE,72,2.0,9.0,72,0.00,,,0.00,229.0,meteohub,2013-09-20 19:09:00,
2013-09-20 15:14:00,81.9,71.6,29.96,ESE,103,0.0,11.0,71,0.00,,,0.00,824.0,meteohub,2013-09-20 19:14:00,
2013-09-20 15:19:00,82.0,71.2,29.95,ESE,106,0.0,11.0,70,0.00,,,0.00,849.0,meteohub,2013-09-20 19:19:00,
2013-09-20 15:24:00,82.6,71.4,29.95,NE,41,5.0,11.0,69,0.00,,,0.00,835.0,meteohub,2013-09-20 19:24:00,
2013-09-20 15:29:00,82.2,71.4,29.95,East,100,2.0,7.0,70,0.00,,,0.00,216.0,meteohub,2013-09-20 19:29:00,
2013-09-20 15:34:00,81.3,70.5,29.95,East,82,0.0,8.0,70,0.00,,,0.00,156.0,meteohub,2013-09-20 19:34:00,
2013-09-20 15:39:00,81.0,70.7,29.94,ENE,67,0.0,8.0,71,0.00,,,0.00,262.0,meteohub,2013-09-20 19:39:00,
2013-09-20 15:44:00,81.1,71.2,29.94,ESE,117,0.0,5.0,72,0.00,,,0.00,807.0,meteohub,2013-09-20 19:44:00,
2013-09-20 15:49:00,81.7,71.8,29.94,East,90,0.0,5.0,72,0.00,,,0.00,775.0,meteohub,2013-09-20 19:49:00,
2013-09-20 15:54:00,81.7,71.8,29.94,ESE,113,0.0,8.0,72,0.00,,,0.00,130.0,meteohub,2013-09-20 19:54:00,
2013-09-20 15:59:00,81.0,70.7,29.94,East,82,0.0,10.0,71,0.00,,,0.00,677.0,meteohub,2013-09-20 19:59:00,
2013-09-20 16:04:00,81.5,71.6,29.94,East,86,0.0,10.0,72,0.00,,,0.00,633.0,meteohub,2013-09-20 20:04:00,
2013-09-20 16:09:00,82.2,72.0,29.94,NE,50,0.0,8.0,71,0.00,,,0.00,643.0,meteohub,2013-09-20 20:09:00,
2013-09-20 16:14:00,82.4,71.2,29.94,ESE,113,1.0,7.0,69,0.00,,,0.00,663.0,meteohub,2013-09-20 20:14:00,
2013-09-20 16:19:00,82.2,70.5,29.94,ESE,102,2.0,7.0,68,0.00,,,0.00,640.0,meteohub,2013-09-20 20:19:00,
2013-09-20 16:24:00,82.2,71.4,29.94,ESE,111,0.0,7.0,70,0.00,,,0.00,622.0,meteohub,2013-09-20 20:24:00,
2013-09-20 16:29:00,82.2,70.5,29.94,SE,146,1.0,7.0,68,0.00,,,0.00,172.0,meteohub,2013-09-20 20:29:00,
2013-09-20 16:34:00,82.2,72.0,29.93,NE,53,0.0,5.0,71,0.00,,,0.00,589.0,meteohub,2013-09-20 20:34:00,
2013-09-20 16:39:00,82.4,70.7,29.93,East,92,2.0,7.0,68,0.00,,,0.00,568.0,meteohub,2013-09-20 20:39:00,
2013-09-20 16:44:00,82.6,71.4,29.93,NE,55,1.0,8.0,69,0.00,,,0.00,504.0,meteohub,2013-09-20 20:44:00,
2013-09-20 16:49:00,82.6,71.4,29.93,NE,40,4.0,8.0,69,0.00,,,0.00,499.0,meteohub,2013-09-20 20:49:00,
2013-09-20 16:54:00,82.0,70.3,29.93,ESE,114,0.0,8.0,68,0.00,,,0.00,128.0,meteohub,2013-09-20 20:54:00,
2013-09-20 16:59:00,81.3,70.2,29.93,ESE,113,0.0,5.0,69,0.00,,,0.00,91.0,meteohub,2013-09-20 20:59:00,
2013-09-20 17:04:00,81.0,69.8,29.93,East,101,1.0,4.0,69,0.00,,,0.00,425.0,meteohub,2013-09-20 21:04:00,
2013-09-20 17:09:00,81.1,70.9,29.93,East,95,0.0,4.0,71,0.00,,,0.00,410.0,meteohub,2013-09-20 21:09:00,
2013-09-20 17:14:00,81.3,70.5,29.93,NE,46,0.0,6.0,70,0.00,,,0.00,388.0,meteohub,2013-09-20 21:14:00,
2013-09-20 17:19:00,81.3,70.2,29.93,East,89,0.0,8.0,69,0.00,,,0.00,304.0,meteohub,2013-09-20 21:19:00,
2013-09-20 17:24:00,81.0,70.2,29.93,East,86,0.0,8.0,70,0.00,,,0.00,294.0,meteohub,2013-09-20 21:24:00,
2013-09-20 17:29:00,80.8,70.2,29.92,NE,51,3.0,8.0,70,0.00,,,0.00,74.0,meteohub,2013-09-20 21:29:00,
2013-09-20 17:34:00,80.6,70.0,29.92,ENE,69,0.0,7.0,70,0.00,,,0.00,181.0,meteohub,2013-09-20 21:34:00,
2013-09-20 17:39:00,80.4,70.5,29.93,NNE,30,1.0,7.0,72,0.00,,,0.00,116.0,meteohub,2013-09-20 21:39:00,
2013-09-20 17:44:00,80.2,70.3,29.93,NE,49,0.0,5.0,72,0.00,,,0.00,54.0,meteohub,2013-09-20 21:44:00,
2013-09-20 17:49:00,80.2,70.9,29.93,ENE,58,0.0,7.0,73,0.00,,,0.00,51.0,meteohub,2013-09-20 21:49:00,
2013-09-20 17:54:00,80.1,70.7,29.92,ESE,115,1.0,7.0,73,0.00,,,0.00,51.0,meteohub,2013-09-20 21:54:00,
2013-09-20 17:59:00,79.9,70.5,29.93,ENE,62,0.0,3.0,73,0.00,,,0.00,58.0,meteohub,2013-09-20 21:59:00,
2013-09-20 18:04:00,79.7,70.3,29.92,ENE,64,1.0,4.0,73,0.00,,,0.00,40.0,meteohub,2013-09-20 22:04:00,
2013-09-20 18:09:00,79.3,70.3,29.92,SSW,192,0.0,4.0,74,0.00,,,0.00,40.0,meteohub,2013-09-20 22:09:00,
2013-09-20 18:14:00,79.2,70.2,29.92,ESE,115,0.0,4.0,74,0.00,,,0.00,35.0,meteohub,2013-09-20 22:14:00,
2013-09-20 18:19:00,79.0,70.0,29.92,SSE,150,0.0,5.0,74,0.00,,,0.00,39.0,meteohub,2013-09-20 22:19:00,
2013-09-20 18:24:00,78.6,70.0,29.92,ENE,65,2.0,5.0,75,0.00,,,0.00,44.0,meteohub,2013-09-20 22:24:00,
2013-09-20 18:29:00,78.6,70.0,29.92,ESE,122,2.0,5.0,75,0.00,,,0.00,60.0,meteohub,2013-09-20 22:29:00,
2013-09-20 18:34:00,78.4,69.8,29.91,East,98,0.0,5.0,75,0.00,,,0.00,40.0,meteohub,2013-09-20 22:34:00,
2013-09-20 18:39:00,78.3,70.0,29.92,East,84,0.0,5.0,76,0.00,,,0.00,33.0,meteohub,2013-09-20 22:39:00,
2013-09-20 18:44:00,78.1,70.0,29.92,East,83,0.0,5.0,76,0.00,,,0.00,26.0,meteohub,2013-09-20 22:44:00,
2013-09-20 18:49:00,77.7,70.0,29.92,ENE,72,0.0,5.0,77,0.00,,,0.00,23.0,meteohub,2013-09-20 22:49:00,
2013-09-20 18:54:00,77.5,70.2,29.92,ENE,73,0.0,5.0,78,0.00,,,0.00,21.0,meteohub,2013-09-20 22:54:00,
2013-09-20 19:00:00,77.4,70.3,29.92,East,84,1.0,2.0,79,0.00,,,0.00,16.0,meteohub,2013-09-20 23:00:00,
2013-09-20 19:05:00,77.2,70.2,29.92,East,101,0.0,2.0,79,0.00,,,0.00,14.0,meteohub,2013-09-20 23:05:00,
2013-09-20 19:10:00,76.8,69.8,29.92,SE,128,0.0,2.0,79,0.00,,,0.00,11.0,meteohub,2013-09-20 23:10:00,
2013-09-20 19:15:00,76.6,69.6,29.92,SE,128,0.0,2.0,79,0.00,,,0.00,7.0,meteohub,2013-09-20 23:15:00,
2013-09-20 19:20:00,76.5,69.8,29.92,SE,128,0.0,2.0,80,0.00,,,0.00,5.0,meteohub,2013-09-20 23:20:00,
2013-09-20 19:25:00,76.3,70.0,29.92,SE,128,0.0,1.0,81,0.00,,,0.00,0.0,meteohub,2013-09-20 23:25:00,
2013-09-20 19:30:00,75.9,69.6,29.92,SE,128,0.0,0.0,81,0.00,,,0.00,0.0,meteohub,2013-09-20 23:30:00,
2013-09-20 19:35:00,75.7,70.9,29.92,SE,128,0.0,0.0,85,0.00,,,0.00,0.0,meteohub,2013-09-20 23:35:00,
2013-09-20 19:40:00,75.6,70.7,29.92,SE,128,0.0,0.0,85,0.00,,,0.00,0.0,meteohub,2013-09-20 23:40:00,
2013-09-20 19:45:00,75.0,70.2,29.92,SE,128,0.0,0.0,85,0.00,,,0.00,0.0,meteohub,2013-09-20 23:45:00,
2013-09-20 19:50:00,74.7,70.2,29.92,SE,128,0.0,0.0,86,0.00,,,0.00,0.0,meteohub,2013-09-20 23:50:00,
2013-09-20 19:55:00,74.1,70.0,29.92,SE,128,0.0,0.0,87,0.00,,,0.00,0.0,meteohub,2013-09-20 23:55:00,
2013-09-20 20:00:00,73.8,70.0,29.92,SE,128,0.0,0.0,88,0.00,,,0.00,0.0,meteohub,2013-09-21 00:00:00,
2013-09-20 20:05:00,73.6,69.8,29.92,SE,128,0.0,0.0,88,0.00,,,0.00,0.0,meteohub,2013-09-21 00:05:00,
2013-09-20 20:10:00,72.9,69.1,29.92,SE,128,0.0,0.0,88,0.00,,,0.00,0.0,meteohub,2013-09-21 00:10:00,
2013-09-20 20:15:00,72.5,69.1,29.92,SE,128,0.0,0.0,89,0.00,,,0.00,0.0,meteohub,2013-09-21 00:15:00,
2013-09-20 20:20:00,72.1,69.1,29.92,SE,128,0.0,0.0,90,0.00,,,0.00,0.0,meteohub,2013-09-21 00:20:00,
2013-09-20 20:25:00,72.0,68.9,29.92,SE,128,0.0,0.0,90,0.00,,,0.00,0.0,meteohub,2013-09-21 00:25:00,
2013-09-20 20:30:00,71.8,69.1,29.92,SE,128,0.0,0.0,91,0.00,,,0.00,0.0,meteohub,2013-09-21 00:30:00,
2013-09-20 20:35:00,71.4,68.7,29.93,SE,128,0.0,0.0,91,0.00,,,0.00,0.0,meteohub,2013-09-21 00:35:00,
2013-09-20 20:40:00,71.2,68.5,29.92,SE,128,0.0,0.0,91,0.00,,,0.00,0.0,meteohub,2013-09-21 00:40:00,
2013-09-20 20:45:00,71.2,68.7,29.93,SE,128,0.0,0.0,92,0.00,,,0.00,0.0,meteohub,2013-09-21 00:45:00,
2013-09-20 20:50:00,71.2,68.7,29.92,SE,128,0.0,0.0,92,0.00,,,0.00,0.0,meteohub,2013-09-21 00:50:00,
2013-09-20 20:55:00,70.9,68.4,29.92,SE,128,0.0,0.0,92,0.00,,,0.00,0.0,meteohub,2013-09-21 00:55:00,
2013-09-20 21:00:00,70.5,68.0,29.92,SE,128,0.0,0.0,92,0.00,,,0.00,0.0,meteohub,2013-09-21 01:00:00,
2013-09-20 21:06:00,70.3,67.8,29.92,SE,128,0.0,0.0,92,0.00,,,0.00,0.0,meteohub,2013-09-21 01:06:00,
2013-09-20 21:11:00,70.2,68.0,29.92,SE,128,0.0,0.0,93,0.00,,,0.00,0.0,meteohub,2013-09-21 01:11:00,
2013-09-20 21:16:00,70.2,68.0,29.92,SE,128,0.0,0.0,93,0.00,,,0.00,0.0,meteohub,2013-09-21 01:16:00,
2013-09-20 21:21:00,70.2,68.0,29.92,SE,128,0.0,0.0,93,0.00,,,0.00,0.0,meteohub,2013-09-21 01:21:00,
2013-09-20 21:26:00,70.0,67.8,29.92,SE,128,0.0,0.0,93,0.00,,,0.00,0.0,meteohub,2013-09-21 01:26:00,
2013-09-20 21:31:00,70.2,68.4,29.93,SE,128,0.0,0.0,94,0.00,,,0.00,0.0,meteohub,2013-09-21 01:31:00,
2013-09-20 21:36:00,70.2,68.4,29.93,SE,128,0.0,0.0,94,0.00,,,0.00,0.0,meteohub,2013-09-21 01:36:00,
2013-09-20 21:41:00,70.2,68.4,29.92,SE,128,0.0,0.0,94,0.00,,,0.00,0.0,meteohub,2013-09-21 01:41:00,
2013-09-20 21:46:00,70.0,68.2,29.93,SE,128,0.0,0.0,94,0.00,,,0.00,0.0,meteohub,2013-09-21 01:46:00,
2013-09-20 21:51:00,70.0,68.2,29.93,SE,128,0.0,0.0,94,0.00,,,0.00,0.0,meteohub,2013-09-21 01:51:00,
2013-09-20 21:56:00,70.0,68.2,29.93,SE,128,0.0,0.0,94,0.00,,,0.00,0.0,meteohub,2013-09-21 01:56:00,
2013-09-20 22:01:00,69.8,68.4,29.93,SE,128,0.0,0.0,95,0.00,,,0.00,0.0,meteohub,2013-09-21 02:01:00,
2013-09-20 22:07:00,69.6,68.2,29.93,SE,128,0.0,0.0,95,0.00,,,0.00,0.0,meteohub,2013-09-21 02:07:00,
2013-09-20 22:12:00,69.6,68.2,29.93,SE,128,0.0,0.0,95,0.00,,,0.00,0.0,meteohub,2013-09-21 02:12:00,
2013-09-20 22:17:00,69.4,68.0,29.93,SE,128,0.0,0.0,95,0.00,,,0.00,0.0,meteohub,2013-09-21 02:17:00,
2013-09-20 22:22:00,69.4,68.0,29.93,SE,128,0.0,0.0,95,0.00,,,0.00,0.0,meteohub,2013-09-21 02:22:00,
2013-09-20 22:27:00,69.3,67.8,29.93,SE,128,0.0,0.0,95,0.00,,,0.00,0.0,meteohub,2013-09-21 02:27:00,
2013-09-20 22:32:00,69.3,67.8,29.93,SE,128,0.0,0.0,95,0.00,,,0.00,0.0,meteohub,2013-09-21 02:32:00,
2013-09-20 22:37:00,69.1,67.6,29.93,SE,128,0.0,0.0,95,0.00,,,0.00,0.0,meteohub,2013-09-21 02:37:00,
2013-09-20 22:42:00,69.1,67.6,29.93,SE,128,0.0,0.0,95,0.00,,,0.00,0.0,meteohub,2013-09-21 02:42:00,
2013-09-20 22:47:00,69.1,67.8,29.93,SE,128,0.0,0.0,96,0.00,,,0.00,0.0,meteohub,2013-09-21 02:47:00,
2013-09-20 22:52:00,69.1,67.8,29.93,SE,128,0.0,0.0,96,0.00,,,0.00,0.0,meteohub,2013-09-21 02:52:00,
2013-09-20 22:57:00,69.1,67.8,29.92,SE,128,0.0,0.0,96,0.00,,,0.00,0.0,meteohub,2013-09-21 02:57:00,
2013-09-20 23:02:00,68.7,67.3,29.92,SE,128,0.0,0.0,95,0.00,,,0.00,0.0,meteohub,2013-09-21 03:02:00,
2013-09-20 23:07:00,68.7,67.3,29.92,SE,128,0.0,0.0,95,0.00,,,0.00,0.0,meteohub,2013-09-21 03:07:00,
2013-09-20 23:12:00,68.5,67.1,29.92,SE,128,0.0,0.0,95,0.00,,,0.00,0.0,meteohub,2013-09-21 03:12:00,
2013-09-20 23:17:00,68.5,67.3,29.92,SE,128,0.0,0.0,96,0.00,,,0.00,0.0,meteohub,2013-09-21 03:17:00,
2013-09-20 23:22:00,68.4,67.1,29.92,SE,128,0.0,0.0,96,0.00,,,0.00,0.0,meteohub,2013-09-21 03:22:00,
2013-09-20 23:27:00,68.4,67.1,29.92,SE,128,0.0,0.0,96,0.00,,,0.00,0.0,meteohub,2013-09-21 03:27:00,
2013-09-20 23:32:00,68.4,67.1,29.92,SE,128,0.0,0.0,96,0.00,,,0.00,0.0,meteohub,2013-09-21 03:32:00,
2013-09-20 23:37:00,68.4,67.1,29.92,SE,128,0.0,0.0,96,0.00,,,0.00,0.0,meteohub,2013-09-21 03:37:00,
2013-09-20 23:42:00,68.4,67.1,29.92,SE,128,0.0,0.0,96,0.00,,,0.00,0.0,meteohub,2013-09-21 03:42:00,
2013-09-20 23:47:00,68.4,67.1,29.92,SE,128,0.0,0.0,96,0.00,,,0.00,0.0,meteohub,2013-09-21 03:47:00,
2013-09-20 23:52:00,68.2,66.9,29.92,SE,128,0.0,0.0,96,0.00,,,0.00,0.0,meteohub,2013-09-21 03:52:00,
2013-09-20 23:57:00,68.0,66.7,29.92,SE,128,0.0,0.0,96,0.00,,,0.00,0.0,meteohub,2013-09-21 03:57:00,